createdAt,value
2023-03-13T00:00:56.420Z,15.60
2023-03-13T00:03:24.320Z,15.70
2023-03-13T00:05:56.130Z,15.70
2023-03-13T00:08:24.136Z,15.70
2023-03-13T00:10:51.890Z,15.60
2023-03-13T00:13:21.048Z,15.70
2023-03-13T00:15:49.010Z,15.70
2023-03-13T00:18:17.151Z,15.70
2023-03-13T00:20:47.765Z,15.70
2023-03-13T00:23:15.698Z,15.70
2023-03-13T00:25:43.786Z,15.70
2023-03-13T00:28:11.766Z,15.70
2023-03-13T00:30:41.380Z,15.70
2023-03-13T00:33:09.249Z,15.70
2023-03-13T00:35:37.084Z,15.70
2023-03-13T00:38:04.879Z,15.70
2023-03-13T00:40:32.686Z,15.70
2023-03-13T00:43:00.384Z,15.70
2023-03-13T00:45:28.422Z,15.70
2023-03-13T00:47:57.722Z,15.70
2023-03-13T00:50:25.753Z,15.70
2023-03-13T00:52:54.163Z,15.70
2023-03-13T00:55:22.092Z,15.70
2023-03-13T00:57:50.425Z,15.70
2023-03-13T01:00:19.212Z,15.70
2023-03-13T01:02:47.635Z,15.70
2023-03-13T01:05:17.042Z,15.80
2023-03-13T01:07:44.794Z,15.80
2023-03-13T01:10:12.794Z,15.70
2023-03-13T01:12:40.806Z,15.80
2023-03-13T01:15:10.321Z,15.70
2023-03-13T01:17:38.240Z,15.70
2023-03-13T01:20:08.283Z,15.70
2023-03-13T01:22:37.517Z,15.70
2023-03-13T01:25:06.079Z,15.70
2023-03-13T01:27:33.815Z,15.70
2023-03-13T01:30:02.008Z,15.70
2023-03-13T01:32:29.812Z,15.80
2023-03-13T01:34:57.794Z,15.70
2023-03-13T01:37:25.560Z,15.70
2023-03-13T01:39:54.765Z,15.70
2023-03-13T01:42:22.740Z,15.70
2023-03-13T01:44:51.604Z,15.70
2023-03-13T01:47:19.438Z,15.70
2023-03-13T01:49:47.195Z,15.70
2023-03-13T01:52:15.954Z,15.70
2023-03-13T01:54:44.867Z,15.70
2023-03-13T01:57:16.566Z,15.70
2023-03-13T01:59:47.231Z,15.70
2023-03-13T02:02:15.251Z,15.70
2023-03-13T02:04:46.593Z,15.70
2023-03-13T02:07:16.769Z,15.70
2023-03-13T02:09:46.401Z,15.70
2023-03-13T02:12:17.245Z,15.70
2023-03-13T02:14:45.833Z,15.70
2023-03-13T02:17:13.592Z,15.70
2023-03-13T02:19:43.228Z,15.70
2023-03-13T02:22:13.867Z,15.70
2023-03-13T02:24:44.161Z,15.80
2023-03-13T02:27:13.232Z,15.80
2023-03-13T02:29:41.021Z,15.80
2023-03-13T02:32:09.155Z,15.80
2023-03-13T02:34:37.742Z,15.70
2023-03-13T02:37:06.176Z,15.70
2023-03-13T02:39:34.121Z,15.70
2023-03-13T02:42:02.103Z,15.80
2023-03-13T02:44:31.762Z,15.80
2023-03-13T02:46:59.666Z,15.70
2023-03-13T02:49:28.817Z,15.80
2023-03-13T02:51:58.047Z,15.80
2023-03-13T02:54:28.372Z,15.80
2023-03-13T02:56:57.436Z,15.80
2023-03-13T02:59:25.381Z,15.80
2023-03-13T03:01:54.886Z,15.80
2023-03-13T03:04:22.979Z,15.80
2023-03-13T03:06:51.460Z,15.80
2023-03-13T03:09:19.523Z,15.80
2023-03-13T03:11:47.735Z,15.80
2023-03-13T03:14:15.867Z,15.80
2023-03-13T03:16:43.835Z,15.80
2023-03-13T03:19:13.225Z,15.80
2023-03-13T03:21:41.351Z,15.80
2023-03-13T03:24:09.744Z,15.80
2023-03-13T03:26:37.688Z,15.80
2023-03-13T03:29:05.684Z,15.80
2023-03-13T03:31:33.779Z,15.80
2023-03-13T03:34:01.688Z,15.90
2023-03-13T03:36:30.948Z,15.80
2023-03-13T03:38:59.177Z,15.90
2023-03-13T03:41:27.434Z,15.90
2023-03-13T03:43:55.473Z,15.80
2023-03-13T03:46:23.317Z,15.80
2023-03-13T03:48:51.189Z,15.90
2023-03-13T03:51:19.490Z,15.90
2023-03-13T03:53:48.939Z,15.90
2023-03-13T03:56:16.843Z,15.90
2023-03-13T03:58:44.670Z,15.90
2023-03-13T04:01:12.571Z,15.90
2023-03-13T04:03:40.616Z,15.90
2023-03-13T04:06:09.426Z,15.90
2023-03-13T04:08:37.300Z,15.90
2023-03-13T04:11:06.571Z,15.90
2023-03-13T04:13:34.425Z,15.90
2023-03-13T04:16:07.159Z,15.90
2023-03-13T04:18:35.046Z,15.90
2023-03-13T04:21:03.220Z,15.90
2023-03-13T04:23:31.410Z,15.90
2023-03-13T04:25:59.422Z,15.90
2023-03-13T04:28:28.722Z,15.90
2023-03-13T04:30:58.219Z,15.90
2023-03-13T04:33:26.765Z,15.90
2023-03-13T04:35:54.660Z,15.90
2023-03-13T04:38:22.579Z,15.90
2023-03-13T04:40:50.498Z,16.00
2023-03-13T04:43:18.811Z,16.00
2023-03-13T04:45:48.065Z,16.00
2023-03-13T04:48:15.990Z,16.00
2023-03-13T04:50:44.256Z,16.00
2023-03-13T04:53:12.101Z,16.00
2023-03-13T04:55:40.407Z,16.00
2023-03-13T04:58:08.320Z,16.00
2023-03-13T05:00:36.332Z,16.00
2023-03-13T05:03:05.594Z,16.00
2023-03-13T05:05:34.997Z,16.00
2023-03-13T05:08:03.104Z,16.00
2023-03-13T05:10:31.164Z,16.10
2023-03-13T05:12:59.013Z,16.10
2023-03-13T05:15:26.968Z,16.10
2023-03-13T05:17:55.021Z,16.10
2023-03-13T05:20:24.356Z,16.10
2023-03-13T05:22:52.208Z,16.10
2023-03-13T05:25:20.457Z,16.10
2023-03-13T05:27:48.357Z,16.10
2023-03-13T05:30:16.335Z,16.20
2023-03-13T05:32:44.644Z,16.10
2023-03-13T05:35:12.575Z,16.10
2023-03-13T05:37:42.472Z,16.20
2023-03-13T05:40:11.473Z,16.20
2023-03-13T05:42:39.494Z,16.20
2023-03-13T05:45:09.266Z,16.20
2023-03-13T05:47:39.083Z,16.20
2023-03-13T05:50:07.994Z,16.20
2023-03-13T05:52:36.387Z,16.20
2023-03-13T05:55:06.319Z,16.30
2023-03-13T05:57:34.262Z,16.30
2023-03-13T06:00:02.582Z,16.30
2023-03-13T06:02:30.792Z,16.30
2023-03-13T06:04:58.940Z,16.30
2023-03-13T06:07:27.180Z,16.30
2023-03-13T06:09:55.091Z,16.30
2023-03-13T06:12:24.367Z,16.30
2023-03-13T06:14:52.308Z,16.40
2023-03-13T06:17:20.145Z,16.40
2023-03-13T06:19:48.078Z,16.40
2023-03-13T06:22:17.864Z,16.40
2023-03-13T06:24:46.887Z,16.40
2023-03-13T06:27:15.182Z,16.40
2023-03-13T06:29:44.556Z,16.40
2023-03-13T06:32:12.557Z,16.50
2023-03-13T06:34:40.571Z,16.50
2023-03-13T06:37:08.592Z,16.50
2023-03-13T06:39:36.442Z,16.50
2023-03-13T06:42:09.619Z,16.50
2023-03-13T06:44:38.202Z,16.60
2023-03-13T06:47:08.153Z,16.60
2023-03-13T06:49:36.675Z,16.60
2023-03-13T06:52:04.824Z,16.60
2023-03-13T06:54:33.100Z,16.70
2023-03-13T06:57:01.108Z,16.60
2023-03-13T06:59:29.598Z,16.70
2023-03-13T07:01:57.540Z,16.70
2023-03-13T07:04:27.071Z,16.70
2023-03-13T07:06:54.982Z,16.70
2023-03-13T07:09:23.319Z,16.70
2023-03-13T07:11:51.247Z,16.80
2023-03-13T07:14:19.225Z,16.80
2023-03-13T07:16:47.508Z,16.80
2023-03-13T07:19:15.834Z,16.80
2023-03-13T07:21:46.989Z,16.80
2023-03-13T07:24:15.111Z,16.80
2023-03-13T07:26:54.475Z,16.80
2023-03-13T07:29:30.078Z,16.90
2023-03-13T07:31:58.341Z,16.90
2023-03-13T07:34:26.406Z,16.90
2023-03-13T07:36:56.241Z,17.00
2023-03-13T07:39:24.423Z,17.00
2023-03-13T07:41:52.525Z,17.00
2023-03-13T07:44:20.648Z,17.00
2023-03-13T07:46:50.303Z,17.10
2023-03-13T07:49:18.197Z,17.10
2023-03-13T07:51:47.968Z,17.10
2023-03-13T07:54:17.485Z,17.10
2023-03-13T07:56:45.770Z,17.20
2023-03-13T07:59:13.671Z,17.10
2023-03-13T08:01:42.086Z,17.10
2023-03-13T08:04:11.351Z,17.20
2023-03-13T08:06:41.223Z,17.20
2023-03-13T08:09:09.878Z,17.20
2023-03-13T08:11:40.444Z,17.30
2023-03-13T08:14:08.400Z,17.40
2023-03-13T08:16:36.589Z,17.40
2023-03-13T08:19:06.128Z,17.40
2023-03-13T08:21:35.196Z,17.40
2023-03-13T08:24:06.286Z,17.40
2023-03-13T08:26:35.130Z,17.40
2023-03-13T08:29:05.689Z,17.40
2023-03-13T08:31:34.401Z,17.50
2023-03-13T08:34:02.511Z,17.50
2023-03-13T08:36:32.383Z,17.50
2023-03-13T08:39:01.357Z,17.50
2023-03-13T08:41:30.565Z,17.60
2023-03-13T08:43:58.917Z,17.60
2023-03-13T08:46:29.959Z,17.60
2023-03-13T08:48:57.927Z,17.60
2023-03-13T08:51:27.251Z,17.70
2023-03-13T08:53:56.167Z,17.70
2023-03-13T08:56:25.312Z,17.70
2023-03-13T08:58:53.621Z,17.80
2023-03-13T09:01:22.248Z,17.80
2023-03-13T09:03:51.779Z,17.80
2023-03-13T09:06:20.195Z,17.90
2023-03-13T09:08:48.170Z,17.90
2023-03-13T09:11:17.485Z,17.90
2023-03-13T09:13:46.519Z,17.90
2023-03-13T09:16:15.628Z,17.90
2023-03-13T09:18:43.926Z,18.00
2023-03-13T09:21:14.603Z,17.90
2023-03-13T09:23:43.177Z,18.00
2023-03-13T09:26:12.213Z,17.90
2023-03-13T09:28:42.599Z,18.00
2023-03-13T09:31:11.344Z,18.10
2023-03-13T09:33:39.873Z,18.10
2023-03-13T09:36:08.652Z,18.20
2023-03-13T09:38:38.303Z,18.40
2023-03-13T09:41:12.844Z,18.40
2023-03-13T09:43:43.364Z,18.40
2023-03-13T09:46:14.589Z,18.40
2023-03-13T09:48:44.410Z,18.40
2023-03-13T09:51:14.613Z,18.50
2023-03-13T09:53:46.108Z,18.60
2023-03-13T09:56:16.194Z,18.60
2023-03-13T09:58:48.356Z,18.60
2023-03-13T10:01:16.239Z,18.60
2023-03-13T10:03:45.672Z,18.60
2023-03-13T10:06:15.922Z,18.70
2023-03-13T10:08:45.304Z,18.70
2023-03-13T10:11:16.437Z,18.70
2023-03-13T10:13:47.370Z,18.70
2023-03-13T10:16:19.297Z,18.80
2023-03-13T10:18:49.410Z,18.80
2023-03-13T10:21:19.183Z,18.90
2023-03-13T10:23:52.514Z,19.10
2023-03-13T10:26:22.484Z,19.10
2023-03-13T10:28:51.515Z,19.10
2023-03-13T10:31:22.751Z,19.20
2023-03-13T10:33:50.806Z,19.40
2023-03-13T10:36:19.703Z,19.50
2023-03-13T10:38:50.847Z,19.60
2023-03-13T10:41:32.665Z,19.60
2023-03-13T10:44:01.680Z,19.90
2023-03-13T10:46:30.489Z,20.50
2023-03-13T10:48:59.095Z,20.90
2023-03-13T10:51:34.587Z,21.20
2023-03-13T10:54:09.666Z,21.40
2023-03-13T10:56:37.917Z,21.60
2023-03-13T10:59:18.144Z,21.70
2023-03-13T11:01:46.127Z,21.60
2023-03-13T11:04:20.940Z,21.60
2023-03-13T11:06:52.768Z,21.80
2023-03-13T11:09:22.484Z,22.00
2023-03-13T11:11:51.588Z,22.10
2023-03-13T11:14:20.867Z,21.90
2023-03-13T11:16:50.520Z,21.70
2023-03-13T11:19:36.362Z,21.50
2023-03-13T11:22:26.349Z,21.40
2023-03-13T11:24:59.177Z,21.20
2023-03-13T11:27:30.288Z,21.10
2023-03-13T11:30:18.547Z,21.00
2023-03-13T11:32:49.364Z,20.90
2023-03-13T11:35:22.457Z,20.80
2023-03-13T11:37:51.326Z,20.80
2023-03-13T11:40:22.722Z,20.80
2023-03-13T11:43:21.819Z,20.80
2023-03-13T11:46:13.506Z,20.90
2023-03-13T11:49:03.595Z,21.60
2023-03-13T11:51:34.225Z,21.80
2023-03-13T11:54:10.446Z,22.20
2023-03-13T11:56:41.990Z,22.60
2023-03-13T11:59:31.227Z,23.50
2023-03-13T12:02:01.823Z,24.90
2023-03-13T12:04:31.880Z,26.00
2023-03-13T12:07:02.994Z,27.50
2023-03-13T12:09:34.318Z,28.20
2023-03-13T12:12:04.753Z,27.90
2023-03-13T12:14:34.512Z,28.60
2023-03-13T12:17:04.021Z,28.70
2023-03-13T12:19:34.007Z,28.00
2023-03-13T12:22:07.898Z,27.30
2023-03-13T12:24:37.521Z,27.20
2023-03-13T12:27:11.188Z,27.50
2023-03-13T12:29:44.930Z,27.30
2023-03-13T12:32:15.562Z,26.80
2023-03-13T12:34:50.048Z,27.10
2023-03-13T12:37:21.603Z,28.30
2023-03-13T12:39:51.152Z,29.80
2023-03-13T12:42:26.124Z,31.30
2023-03-13T12:45:01.544Z,30.40
2023-03-13T12:47:32.607Z,29.40
2023-03-13T12:50:25.257Z,29.10
2023-03-13T12:53:26.615Z,30.40
2023-03-13T12:56:30.320Z,30.00
2023-03-13T12:59:00.597Z,30.00
2023-03-13T13:01:31.861Z,31.50
2023-03-13T13:04:01.882Z,31.20
2023-03-13T13:06:30.723Z,31.60
2023-03-13T13:09:09.064Z,33.10
2023-03-13T13:11:56.370Z,33.60
2023-03-13T13:15:04.979Z,33.40
2023-03-13T13:17:48.899Z,33.20
2023-03-13T13:20:45.956Z,33.50
2023-03-13T13:23:43.851Z,32.70
2023-03-13T13:26:48.933Z,32.10
2023-03-13T13:30:00.189Z,31.20
2023-03-13T13:32:48.369Z,30.30
2023-03-13T13:35:25.365Z,29.20
2023-03-13T13:37:53.685Z,28.60
2023-03-13T13:40:28.009Z,28.10
2023-03-13T13:42:56.783Z,27.60
2023-03-13T13:45:32.742Z,28.10
2023-03-13T13:48:30.308Z,28.70
2023-03-13T13:51:24.009Z,29.80
2023-03-13T13:53:54.839Z,31.20
2023-03-13T13:56:47.050Z,31.20
2023-03-13T13:59:34.538Z,30.30
2023-03-13T14:02:31.891Z,29.80
2023-03-13T14:05:06.039Z,29.20
2023-03-13T14:08:03.633Z,28.50
2023-03-13T14:10:37.205Z,28.00
2023-03-13T14:13:12.593Z,28.20
2023-03-13T14:15:43.762Z,28.30
2023-03-13T14:18:14.201Z,28.40
2023-03-13T14:20:53.185Z,29.20
2023-03-13T14:23:31.190Z,29.00
2023-03-13T14:25:59.059Z,29.40
2023-03-13T14:28:27.971Z,29.00
2023-03-13T14:30:57.027Z,28.90
2023-03-13T14:33:27.748Z,28.80
2023-03-13T14:35:57.812Z,28.20
2023-03-13T14:38:26.491Z,28.10
2023-03-13T14:40:55.370Z,28.20
2023-03-13T14:43:27.580Z,28.10
2023-03-13T14:45:55.510Z,27.70
2023-03-13T14:48:24.731Z,27.30
2023-03-13T14:51:08.707Z,27.00
2023-03-13T14:53:54.400Z,27.00
2023-03-13T14:56:22.349Z,27.40
2023-03-13T14:58:50.288Z,28.00
2023-03-13T15:01:26.526Z,29.40
2023-03-13T15:03:54.774Z,30.20
2023-03-13T15:06:23.863Z,30.20
2023-03-13T15:09:14.860Z,29.50
2023-03-13T15:11:43.346Z,29.20
2023-03-13T15:14:33.917Z,29.00
2023-03-13T15:17:01.927Z,29.00
2023-03-13T15:19:29.941Z,28.80
2023-03-13T15:21:58.201Z,28.30
2023-03-13T15:24:27.736Z,28.20
2023-03-13T15:26:56.144Z,28.10
2023-03-13T15:29:24.125Z,27.90
2023-03-13T15:31:52.283Z,27.80
2023-03-13T15:34:25.240Z,27.50
2023-03-13T15:36:53.293Z,27.20
2023-03-13T15:39:22.442Z,27.00
2023-03-13T15:41:51.909Z,26.80
2023-03-13T15:44:20.181Z,27.00
2023-03-13T15:46:48.713Z,26.70
2023-03-13T15:49:16.726Z,26.50
2023-03-13T15:51:44.695Z,26.30
2023-03-13T15:54:12.739Z,26.20
2023-03-13T15:56:41.937Z,26.10
2023-03-13T15:59:14.592Z,25.90
2023-03-13T16:01:43.436Z,25.80
2023-03-13T16:04:11.714Z,25.60
2023-03-13T16:06:39.870Z,25.50
2023-03-13T16:09:07.906Z,25.40
2023-03-13T16:11:35.913Z,25.30
2023-03-13T16:14:04.071Z,25.10
2023-03-13T16:16:37.268Z,25.00
2023-03-13T16:19:07.444Z,24.90
2023-03-13T16:21:36.171Z,24.80
2023-03-13T16:24:04.509Z,24.70
2023-03-13T16:26:32.757Z,24.60
2023-03-13T16:29:00.972Z,24.60
2023-03-13T16:31:29.772Z,24.50
2023-03-13T16:33:59.639Z,24.50
2023-03-13T16:36:35.019Z,24.50
2023-03-13T16:39:03.894Z,24.40
2023-03-13T16:41:32.874Z,24.40
2023-03-13T16:44:05.169Z,24.40
2023-03-13T16:46:36.461Z,24.30
2023-03-13T16:49:06.053Z,24.30
2023-03-13T16:51:34.310Z,24.20
2023-03-13T16:54:03.608Z,24.20
2023-03-13T16:56:33.806Z,24.10
2023-03-13T16:59:01.962Z,24.00
2023-03-13T17:01:30.133Z,23.90
2023-03-13T17:03:58.879Z,23.90
2023-03-13T17:06:29.450Z,23.80
2023-03-13T17:09:02.458Z,23.80
2023-03-13T17:11:30.529Z,23.60
2023-03-13T17:13:59.539Z,23.60
2023-03-13T17:16:32.233Z,23.50
2023-03-13T17:19:00.439Z,23.50
2023-03-13T17:21:31.928Z,23.40
2023-03-13T17:24:00.944Z,23.40
2023-03-13T17:26:33.636Z,23.30
2023-03-13T17:29:01.874Z,23.30
2023-03-13T17:31:30.230Z,23.20
2023-03-13T17:33:58.517Z,23.10
2023-03-13T17:36:27.426Z,23.10
2023-03-13T17:38:58.140Z,23.00
2023-03-13T17:41:27.026Z,23.00
2023-03-13T17:43:55.169Z,22.90
2023-03-13T17:46:24.596Z,22.90
2023-03-13T17:48:54.172Z,22.80
2023-03-13T17:51:23.034Z,22.80
2023-03-13T17:53:51.239Z,22.70
2023-03-13T17:56:22.321Z,22.70
2023-03-13T17:58:51.227Z,22.60
2023-03-13T18:01:21.666Z,22.60
2023-03-13T18:03:50.233Z,22.50
2023-03-13T18:06:23.036Z,22.50
2023-03-13T18:08:51.493Z,22.50
2023-03-13T18:11:21.098Z,22.40
2023-03-13T18:13:49.688Z,22.40
2023-03-13T18:16:25.381Z,22.40
2023-03-13T18:18:53.787Z,22.30
2023-03-13T18:21:22.017Z,22.30
2023-03-13T18:23:50.065Z,22.20
2023-03-13T18:26:21.833Z,22.20
2023-03-13T18:28:49.954Z,22.20
2023-03-13T18:31:18.090Z,22.10
2023-03-13T18:33:47.783Z,22.10
2023-03-13T18:36:17.792Z,22.10
2023-03-13T18:38:46.297Z,22.00
2023-03-13T18:41:15.484Z,22.00
2023-03-13T18:43:45.082Z,22.00
2023-03-13T18:46:15.576Z,21.90
2023-03-13T18:48:43.742Z,21.90
2023-03-13T18:51:16.524Z,21.90
2023-03-13T18:53:44.623Z,21.90
2023-03-13T18:56:18.014Z,21.80
2023-03-13T18:58:50.352Z,21.80
2023-03-13T19:01:20.172Z,21.80
2023-03-13T19:03:48.803Z,21.80
2023-03-13T19:06:18.873Z,21.70
2023-03-13T19:08:47.357Z,21.70
2023-03-13T19:11:15.522Z,21.70
2023-03-13T19:13:43.644Z,21.70
2023-03-13T19:16:17.243Z,21.70
2023-03-13T19:18:45.650Z,21.60
2023-03-13T19:21:18.520Z,21.60
2023-03-13T19:23:46.600Z,21.60
2023-03-13T19:26:20.520Z,21.60
2023-03-13T19:28:48.435Z,21.60
2023-03-13T19:31:18.808Z,21.50
2023-03-13T19:33:47.590Z,21.50
2023-03-13T19:36:16.403Z,21.50
2023-03-13T19:38:44.394Z,21.50
2023-03-13T19:41:12.808Z,21.40
2023-03-13T19:43:41.546Z,21.40
2023-03-13T19:46:25.063Z,21.40
2023-03-13T19:48:54.331Z,21.40
2023-03-13T19:51:22.232Z,21.30
2023-03-13T19:53:50.417Z,21.30
2023-03-13T19:56:43.322Z,21.30
2023-03-13T19:59:15.718Z,21.30
2023-03-13T20:01:45.945Z,21.20
2023-03-13T20:04:14.225Z,21.20
2023-03-13T20:06:42.965Z,21.20
2023-03-13T20:09:12.334Z,21.20
2023-03-13T20:11:40.810Z,21.20
2023-03-13T20:14:09.693Z,21.20
2023-03-13T20:16:37.635Z,21.10
2023-03-13T20:19:07.608Z,21.10
2023-03-13T20:21:36.641Z,21.10
2023-03-13T20:24:04.909Z,21.00
2023-03-13T20:26:33.162Z,21.00
2023-03-13T20:29:01.778Z,21.00
2023-03-13T20:31:30.670Z,21.00
2023-03-13T20:33:58.896Z,21.00
2023-03-13T20:36:28.899Z,21.00
2023-03-13T20:38:57.062Z,20.90
2023-03-13T20:41:27.194Z,20.90
2023-03-13T20:43:55.140Z,20.90
2023-03-13T20:46:23.698Z,20.90
2023-03-13T20:48:51.779Z,20.90
2023-03-13T20:51:20.157Z,20.90
2023-03-13T20:53:49.611Z,20.90
2023-03-13T20:56:18.211Z,20.90
2023-03-13T20:58:47.582Z,20.80
2023-03-13T21:01:18.285Z,20.80
2023-03-13T21:03:46.833Z,20.80
2023-03-13T21:06:15.733Z,20.80
2023-03-13T21:08:43.860Z,20.80
2023-03-13T21:11:19.183Z,20.80
2023-03-13T21:13:47.278Z,20.80
2023-03-13T21:16:15.410Z,20.70
2023-03-13T21:18:43.784Z,20.80
2023-03-13T21:21:13.292Z,20.70
2023-03-13T21:23:41.613Z,20.70
2023-03-13T21:26:09.598Z,20.70
2023-03-13T21:28:39.481Z,20.70
2023-03-13T21:31:11.144Z,20.70
2023-03-13T21:33:39.367Z,20.70
2023-03-13T21:36:07.918Z,20.70
2023-03-13T21:38:36.264Z,20.70
2023-03-13T21:41:08.622Z,20.70
2023-03-13T21:43:38.506Z,20.70
2023-03-13T21:46:06.949Z,20.60
2023-03-13T21:48:34.992Z,20.60
2023-03-13T21:51:03.074Z,20.70
2023-03-13T21:53:31.068Z,20.70
2023-03-13T21:55:58.970Z,20.60
2023-03-13T21:58:26.953Z,20.60
2023-03-13T22:00:56.650Z,20.60
2023-03-13T22:03:26.566Z,20.60
2023-03-13T22:05:54.635Z,20.60
2023-03-13T22:08:22.697Z,20.60
2023-03-13T22:10:51.061Z,20.60
2023-03-13T22:13:19.415Z,20.60
2023-03-13T22:15:50.780Z,20.60
2023-03-13T22:18:21.820Z,20.50
2023-03-13T22:20:54.003Z,20.50
2023-03-13T22:23:40.262Z,20.50
2023-03-13T22:26:09.571Z,20.50
2023-03-13T22:28:38.044Z,20.50
2023-03-13T22:31:07.173Z,20.40
2023-03-13T22:33:36.826Z,20.40
2023-03-13T22:36:05.719Z,20.40
2023-03-13T22:38:39.336Z,20.40
2023-03-13T22:41:08.255Z,20.30
2023-03-13T22:43:36.420Z,20.30
2023-03-13T22:46:04.798Z,20.30
2023-03-13T22:48:33.324Z,20.30
2023-03-13T22:51:04.060Z,20.30
2023-03-13T22:53:32.452Z,20.30
2023-03-13T22:56:00.499Z,20.30
2023-03-13T22:58:28.944Z,20.30
2023-03-13T23:00:56.944Z,20.20
2023-03-13T23:03:25.513Z,20.30
2023-03-13T23:05:53.474Z,20.20
2023-03-13T23:08:22.955Z,20.20
2023-03-13T23:10:50.925Z,20.20
2023-03-13T23:13:19.255Z,20.20
2023-03-13T23:15:55.649Z,20.20
2023-03-13T23:18:24.308Z,20.20
2023-03-13T23:20:52.253Z,20.20
2023-03-13T23:23:20.527Z,20.10
2023-03-13T23:25:50.196Z,20.10
2023-03-13T23:28:18.126Z,20.10
2023-03-13T23:30:45.988Z,20.10
2023-03-13T23:33:14.046Z,20.10
2023-03-13T23:35:44.041Z,20.10
2023-03-13T23:38:12.244Z,20.10
2023-03-13T23:40:40.302Z,20.10
2023-03-13T23:43:09.670Z,20.10
2023-03-13T23:45:38.114Z,20.10
2023-03-13T23:48:06.367Z,20.10
2023-03-13T23:50:34.358Z,20.10
2023-03-13T23:53:02.293Z,20.00
2023-03-13T23:55:30.501Z,20.00
2023-03-13T23:57:58.452Z,20.00
